New Knoxville, Ohio
Current Conditions -  °F | °C
As of 3:14 PM on Friday 31 Oct 2014 (Local Time) from KAXV Reporting Station
Drizzle Drizzle  
Wind Chill: 36°   Ceiling: 2200
Heat Index: 41°   Visibility: 10mi
Dew Point: 39°   Wind: 8mph
Humidity: 93%   Direction: 320°NW
Pressure: 29.9"   Gusts: NA
Location:  40.49°N, 84.31°W
Report Text: KAXV 311914Z AUTO 32007KT 10SM DZ SCT016 BKN022 OVC030 05/04 A2990 RMK AO2
Loading
Personal Weather Stations






























Interactive Weather Map
Tropical Storm Tracking
New forecast layout! Learn more

10-Day Weather Forecast

Advertisements
Track Severe Weather on mobile